Gage Information Page
Francis E. Walter Reservoir, PA

Provisional Data Subject to Revision
Francis E. Walter Reservoir, PA
Amber Threshold Elevation:1392 feet
Red Threshold Elevation:1441 feet
Date (ET) Elevation (ft) Storage (ac-ft) Inflow (cfs) Outflow (cfs)
Feb 12, 2016   5:15 pm 1300.54 2048 428 285
Feb 12, 2016   4:15 pm 1300.39 2032 420 285
Feb 12, 2016   3:15 pm 1300.24 2017 398 285
Feb 12, 2016   2:15 pm 1300.08 2001 380 285
Feb 12, 2016   1:15 pm 1299.92 1985 366 285
Feb 12, 2016 12:15 pm 1299.81 1974 359 285
Feb 12, 2016 11:15 am 1299.73 1966 357 285
Feb 12, 2016 10:15 am 1299.67 1960 358 285
Feb 12, 2016   9:15 am 1299.60 1953 359 285
Feb 12, 2016   8:15 am 1299.54 1947 358 468
Feb 12, 2016   7:15 am 1299.70 1963 370 532
Feb 12, 2016   6:15 am 1299.86 1979 378 539
Feb 12, 2016   5:15 am 1300.00 1993 385 539
Feb 12, 2016   4:15 am 1300.15 2008 397 539
Feb 12, 2016   3:15 am 1300.29 2022 409 539
Feb 12, 2016   2:15 am 1300.43 2036 421 539
Feb 12, 2016   1:15 am 1300.56 2050 433 539
Feb 12, 2016 12:15 am 1300.68 2062 443 539
Feb 11, 2016 11:15 pm 1300.80 2074 453 539
Feb 11, 2016 10:15 pm 1300.91 2085 460 539
Feb 11, 2016   9:15 pm 1301.00 2095 463 539
Feb 11, 2016   8:15 pm 1301.07 2102 461 539
Feb 11, 2016   7:15 pm 1301.13 2108 456 539
Feb 11, 2016   6:15 pm 1301.19 2114 453 539
Report Generated Feb 12, 2016 06:24 PM

NWS Web Info
USGS Web Info